sensor_id;sensor_type;location;lat;lon;timestamp;P1;durP1;ratioP1;P2;durP2;ratioP2
48733;SDS011;34530;52.084;5.146;2022-08-19T00:01:44;5.40;;;3.00;;
48733;SDS011;34530;52.084;5.146;2022-08-19T00:04:12;5.07;;;3.15;;
48733;SDS011;34530;52.084;5.146;2022-08-19T00:06:40;4.15;;;2.53;;
48733;SDS011;34530;52.084;5.146;2022-08-19T00:09:08;4.95;;;2.50;;
48733;SDS011;34530;52.084;5.146;2022-08-19T00:11:36;6.22;;;3.33;;
48733;SDS011;34530;52.084;5.146;2022-08-19T00:14:02;5.13;;;3.30;;
48733;SDS011;34530;52.084;5.146;2022-08-19T00:16:29;6.47;;;4.43;;
48733;SDS011;34530;52.084;5.146;2022-08-19T00:18:55;7.80;;;4.82;;
48733;SDS011;34530;52.084;5.146;2022-08-19T00:21:21;9.52;;;6.10;;
48733;SDS011;34530;52.084;5.146;2022-08-19T00:23:47;10.95;;;5.00;;
48733;SDS011;34530;52.084;5.146;2022-08-19T00:26:13;5.18;;;3.55;;
48733;SDS011;34530;52.084;5.146;2022-08-19T00:28:40;6.05;;;4.63;;
48733;SDS011;34530;52.084;5.146;2022-08-19T00:31:06;7.85;;;5.40;;
48733;SDS011;34530;52.084;5.146;2022-08-19T00:33:34;7.35;;;5.13;;
48733;SDS011;34530;52.084;5.146;2022-08-19T00:36:04;9.27;;;5.50;;
48733;SDS011;34530;52.084;5.146;2022-08-19T00:38:32;10.80;;;6.45;;
48733;SDS011;34530;52.084;5.146;2022-08-19T00:40:59;6.65;;;5.07;;
48733;SDS011;34530;52.084;5.146;2022-08-19T00:43:25;7.18;;;4.88;;
48733;SDS011;34530;52.084;5.146;2022-08-19T00:45:52;5.90;;;4.85;;
48733;SDS011;34530;52.084;5.146;2022-08-19T00:48:18;6.10;;;3.95;;
48733;SDS011;34530;52.084;5.146;2022-08-19T00:50:46;5.43;;;3.88;;
48733;SDS011;34530;52.084;5.146;2022-08-19T00:53:14;5.72;;;4.43;;
48733;SDS011;34530;52.084;5.146;2022-08-19T00:55:47;4.72;;;3.88;;
48733;SDS011;34530;52.084;5.146;2022-08-19T00:58:17;5.75;;;3.58;;
48733;SDS011;34530;52.084;5.146;2022-08-19T01:00:45;4.70;;;3.90;;
48733;SDS011;34530;52.084;5.146;2022-08-19T01:03:14;7.22;;;3.75;;
48733;SDS011;34530;52.084;5.146;2022-08-19T01:05:43;4.85;;;3.92;;
48733;SDS011;34530;52.084;5.146;2022-08-19T01:08:10;5.30;;;3.83;;
48733;SDS011;34530;52.084;5.146;2022-08-19T01:10:37;4.28;;;3.25;;
48733;SDS011;34530;52.084;5.146;2022-08-19T01:13:06;5.85;;;3.85;;
48733;SDS011;34530;52.084;5.146;2022-08-19T01:15:45;7.03;;;3.88;;
48733;SDS011;34530;52.084;5.146;2022-08-19T01:18:14;4.40;;;4.00;;
48733;SDS011;34530;52.084;5.146;2022-08-19T01:20:42;4.82;;;3.88;;
48733;SDS011;34530;52.084;5.146;2022-08-19T01:23:07;5.13;;;3.75;;
48733;SDS011;34530;52.084;5.146;2022-08-19T01:28:13;2.58;;;2.20;;
48733;SDS011;34530;52.084;5.146;2022-08-19T01:30:44;4.55;;;2.47;;
48733;SDS011;34530;52.084;5.146;2022-08-19T01:33:11;4.15;;;3.75;;
48733;SDS011;34530;52.084;5.146;2022-08-19T01:35:37;3.40;;;3.10;;
48733;SDS011;34530;52.084;5.146;2022-08-19T01:38:05;4.90;;;3.60;;
48733;SDS011;34530;52.084;5.146;2022-08-19T01:40:33;6.60;;;3.90;;
48733;SDS011;34530;52.084;5.146;2022-08-19T01:43:01;4.28;;;3.67;;
48733;SDS011;34530;52.084;5.146;2022-08-19T01:45:28;3.25;;;3.00;;
48733;SDS011;34530;52.084;5.146;2022-08-19T01:47:56;4.53;;;3.45;;
48733;SDS011;34530;52.084;5.146;2022-08-19T01:50:23;4.32;;;2.60;;
48733;SDS011;34530;52.084;5.146;2022-08-19T01:52:49;4.03;;;3.63;;
48733;SDS011;34530;52.084;5.146;2022-08-19T01:55:16;3.70;;;3.33;;
48733;SDS011;34530;52.084;5.146;2022-08-19T01:57:48;3.78;;;3.40;;
48733;SDS011;34530;52.084;5.146;2022-08-19T02:00:25;3.67;;;3.38;;
48733;SDS011;34530;52.084;5.146;2022-08-19T02:02:52;5.18;;;4.70;;
48733;SDS011;34530;52.084;5.146;2022-08-19T02:05:19;4.13;;;3.67;;
48733;SDS011;34530;52.084;5.146;2022-08-19T02:07:46;5.50;;;4.35;;
48733;SDS011;34530;52.084;5.146;2022-08-19T02:10:14;6.25;;;4.85;;
48733;SDS011;34530;52.084;5.146;2022-08-19T02:12:44;5.63;;;4.07;;
48733;SDS011;34530;52.084;5.146;2022-08-19T02:15:10;5.72;;;4.90;;
48733;SDS011;34530;52.084;5.146;2022-08-19T02:17:36;3.95;;;3.65;;
48733;SDS011;34530;52.084;5.146;2022-08-19T02:20:02;6.75;;;4.82;;
48733;SDS011;34530;52.084;5.146;2022-08-19T02:22:28;6.25;;;4.95;;
48733;SDS011;34530;52.084;5.146;2022-08-19T02:24:54;6.15;;;5.57;;
48733;SDS011;34530;52.084;5.146;2022-08-19T02:27:21;4.80;;;4.30;;
48733;SDS011;34530;52.084;5.146;2022-08-19T02:29:48;3.53;;;2.60;;
48733;SDS011;34530;52.084;5.146;2022-08-19T02:32:14;3.17;;;2.63;;
48733;SDS011;34530;52.084;5.146;2022-08-19T02:34:40;5.50;;;3.80;;
48733;SDS011;34530;52.084;5.146;2022-08-19T02:37:06;4.63;;;3.55;;
48733;SDS011;34530;52.084;5.146;2022-08-19T02:39:52;5.90;;;5.30;;
48733;SDS011;34530;52.084;5.146;2022-08-19T02:42:18;7.65;;;5.60;;
48733;SDS011;34530;52.084;5.146;2022-08-19T02:44:43;7.28;;;5.93;;
48733;SDS011;34530;52.084;5.146;2022-08-19T02:47:09;9.48;;;6.53;;
48733;SDS011;34530;52.084;5.146;2022-08-19T02:49:35;7.13;;;5.65;;
48733;SDS011;34530;52.084;5.146;2022-08-19T02:52:01;6.53;;;5.93;;
48733;SDS011;34530;52.084;5.146;2022-08-19T02:54:28;9.77;;;6.20;;
48733;SDS011;34530;52.084;5.146;2022-08-19T02:56:53;5.63;;;4.65;;
48733;SDS011;34530;52.084;5.146;2022-08-19T02:59:19;7.05;;;4.95;;
48733;SDS011;34530;52.084;5.146;2022-08-19T03:01:45;6.00;;;5.40;;
48733;SDS011;34530;52.084;5.146;2022-08-19T03:04:12;5.97;;;5.38;;
48733;SDS011;34530;52.084;5.146;2022-08-19T03:06:40;6.63;;;4.65;;
48733;SDS011;34530;52.084;5.146;2022-08-19T03:09:08;8.43;;;5.10;;
48733;SDS011;34530;52.084;5.146;2022-08-19T03:11:35;8.80;;;5.25;;
48733;SDS011;34530;52.084;5.146;2022-08-19T03:14:01;6.03;;;5.43;;
48733;SDS011;34530;52.084;5.146;2022-08-19T03:16:30;7.32;;;5.63;;
48733;SDS011;34530;52.084;5.146;2022-08-19T03:18:57;6.00;;;4.47;;
48733;SDS011;34530;52.084;5.146;2022-08-19T03:21:26;4.68;;;4.15;;
48733;SDS011;34530;52.084;5.146;2022-08-19T03:23:55;6.18;;;5.28;;
48733;SDS011;34530;52.084;5.146;2022-08-19T03:26:22;5.72;;;5.13;;
48733;SDS011;34530;52.084;5.146;2022-08-19T03:28:48;7.43;;;4.78;;
48733;SDS011;34530;52.084;5.146;2022-08-19T03:31:16;6.38;;;4.57;;
48733;SDS011;34530;52.084;5.146;2022-08-19T03:33:44;6.75;;;5.85;;
48733;SDS011;34530;52.084;5.146;2022-08-19T03:38:40;6.50;;;5.88;;
48733;SDS011;34530;52.084;5.146;2022-08-19T03:41:12;10.27;;;6.40;;
48733;SDS011;34530;52.084;5.146;2022-08-19T03:43:41;6.53;;;5.90;;
48733;SDS011;34530;52.084;5.146;2022-08-19T03:46:09;7.70;;;6.95;;
48733;SDS011;34530;52.084;5.146;2022-08-19T03:48:37;10.48;;;8.35;;
48733;SDS011;34530;52.084;5.146;2022-08-19T03:51:04;9.15;;;6.72;;
48733;SDS011;34530;52.084;5.146;2022-08-19T03:53:31;9.57;;;8.55;;
48733;SDS011;34530;52.084;5.146;2022-08-19T03:55:57;10.63;;;9.48;;
48733;SDS011;34530;52.084;5.146;2022-08-19T03:58:25;13.65;;;10.90;;
48733;SDS011;34530;52.084;5.146;2022-08-19T04:00:53;7.35;;;6.53;;
48733;SDS011;34530;52.084;5.146;2022-08-19T04:03:20;12.10;;;7.28;;
48733;SDS011;34530;52.084;5.146;2022-08-19T04:05:46;8.18;;;7.18;;
48733;SDS011;34530;52.084;5.146;2022-08-19T04:08:12;8.20;;;7.38;;
48733;SDS011;34530;52.084;5.146;2022-08-19T04:10:43;7.47;;;6.43;;
48733;SDS011;34530;52.084;5.146;2022-08-19T04:13:09;10.68;;;9.18;;
48733;SDS011;34530;52.084;5.146;2022-08-19T04:15:38;8.75;;;7.70;;
48733;SDS011;34530;52.084;5.146;2022-08-19T04:18:06;8.20;;;7.15;;
48733;SDS011;34530;52.084;5.146;2022-08-19T04:20:39;10.98;;;7.63;;
48733;SDS011;34530;52.084;5.146;2022-08-19T04:23:13;11.98;;;8.98;;
48733;SDS011;34530;52.084;5.146;2022-08-19T04:25:40;9.07;;;8.18;;
48733;SDS011;34530;52.084;5.146;2022-08-19T04:28:08;9.48;;;8.55;;
48733;SDS011;34530;52.084;5.146;2022-08-19T04:30:40;9.02;;;7.95;;
48733;SDS011;34530;52.084;5.146;2022-08-19T04:33:13;8.10;;;7.18;;
48733;SDS011;34530;52.084;5.146;2022-08-19T04:35:41;7.15;;;5.80;;
48733;SDS011;34530;52.084;5.146;2022-08-19T04:38:09;8.90;;;7.30;;
48733;SDS011;34530;52.084;5.146;2022-08-19T04:40:45;8.07;;;5.63;;
48733;SDS011;34530;52.084;5.146;2022-08-19T04:43:31;5.43;;;3.63;;
48733;SDS011;34530;52.084;5.146;2022-08-19T04:45:57;6.65;;;4.75;;
48733;SDS011;34530;52.084;5.146;2022-08-19T04:48:23;5.55;;;3.45;;
48733;SDS011;34530;52.084;5.146;2022-08-19T04:50:56;4.30;;;3.90;;
48733;SDS011;34530;52.084;5.146;2022-08-19T04:53:29;4.30;;;3.90;;
48733;SDS011;34530;52.084;5.146;2022-08-19T04:55:56;8.43;;;4.75;;
48733;SDS011;34530;52.084;5.146;2022-08-19T04:58:25;6.43;;;5.05;;
48733;SDS011;34530;52.084;5.146;2022-08-19T05:00:51;6.07;;;5.05;;
48733;SDS011;34530;52.084;5.146;2022-08-19T05:03:18;6.47;;;5.78;;
48733;SDS011;34530;52.084;5.146;2022-08-19T05:05:44;6.32;;;5.18;;
48733;SDS011;34530;52.084;5.146;2022-08-19T05:08:13;6.30;;;5.20;;
48733;SDS011;34530;52.084;5.146;2022-08-19T05:10:44;8.20;;;5.70;;
48733;SDS011;34530;52.084;5.146;2022-08-19T05:13:14;5.55;;;4.72;;
48733;SDS011;34530;52.084;5.146;2022-08-19T05:15:42;8.75;;;5.35;;
48733;SDS011;34530;52.084;5.146;2022-08-19T05:18:08;5.93;;;4.80;;
48733;SDS011;34530;52.084;5.146;2022-08-19T05:20:52;9.52;;;6.53;;
48733;SDS011;34530;52.084;5.146;2022-08-19T05:23:36;7.70;;;5.57;;
48733;SDS011;34530;52.084;5.146;2022-08-19T05:26:02;9.48;;;6.43;;
48733;SDS011;34530;52.084;5.146;2022-08-19T05:28:29;7.55;;;5.97;;
48733;SDS011;34530;52.084;5.146;2022-08-19T05:30:55;11.68;;;9.52;;
48733;SDS011;34530;52.084;5.146;2022-08-19T05:33:21;13.05;;;10.10;;
48733;SDS011;34530;52.084;5.146;2022-08-19T05:35:49;10.35;;;7.78;;
48733;SDS011;34530;52.084;5.146;2022-08-19T05:38:18;9.07;;;7.13;;
48733;SDS011;34530;52.084;5.146;2022-08-19T05:40:44;10.60;;;8.73;;
48733;SDS011;34530;52.084;5.146;2022-08-19T05:43:12;15.68;;;10.93;;
48733;SDS011;34530;52.084;5.146;2022-08-19T05:45:41;11.02;;;8.73;;
48733;SDS011;34530;52.084;5.146;2022-08-19T05:48:07;17.40;;;11.52;;
48733;SDS011;34530;52.084;5.146;2022-08-19T05:50:36;14.18;;;11.30;;
48733;SDS011;34530;52.084;5.146;2022-08-19T05:53:04;19.00;;;14.65;;
48733;SDS011;34530;52.084;5.146;2022-08-19T05:55:30;20.80;;;15.30;;
48733;SDS011;34530;52.084;5.146;2022-08-19T05:57:56;20.40;;;14.82;;
48733;SDS011;34530;52.084;5.146;2022-08-19T06:00:22;22.48;;;15.00;;
48733;SDS011;34530;52.084;5.146;2022-08-19T06:02:48;18.80;;;13.85;;
48733;SDS011;34530;52.084;5.146;2022-08-19T06:05:15;19.67;;;15.05;;
48733;SDS011;34530;52.084;5.146;2022-08-19T06:07:41;19.20;;;15.48;;
48733;SDS011;34530;52.084;5.146;2022-08-19T06:10:08;22.15;;;17.85;;
48733;SDS011;34530;52.084;5.146;2022-08-19T06:12:36;26.70;;;16.88;;
48733;SDS011;34530;52.084;5.146;2022-08-19T06:15:03;29.00;;;19.98;;
48733;SDS011;34530;52.084;5.146;2022-08-19T06:17:31;30.20;;;21.20;;
48733;SDS011;34530;52.084;5.146;2022-08-19T06:19:59;30.95;;;20.45;;
48733;SDS011;34530;52.084;5.146;2022-08-19T06:22:25;29.80;;;19.70;;
48733;SDS011;34530;52.084;5.146;2022-08-19T06:24:51;29.65;;;19.10;;
48733;SDS011;34530;52.084;5.146;2022-08-19T06:27:19;34.97;;;23.75;;
48733;SDS011;34530;52.084;5.146;2022-08-19T06:29:45;32.55;;;22.90;;
48733;SDS011;34530;52.084;5.146;2022-08-19T06:32:11;33.63;;;22.50;;
48733;SDS011;34530;52.084;5.146;2022-08-19T06:34:39;45.58;;;23.70;;
48733;SDS011;34530;52.084;5.146;2022-08-19T06:37:06;38.75;;;24.73;;
48733;SDS011;34530;52.084;5.146;2022-08-19T06:39:33;36.03;;;23.83;;
48733;SDS011;34530;52.084;5.146;2022-08-19T06:42:02;40.88;;;25.23;;
48733;SDS011;34530;52.084;5.146;2022-08-19T06:44:32;49.65;;;29.13;;
48733;SDS011;34530;52.084;5.146;2022-08-19T06:47:01;56.10;;;29.73;;
48733;SDS011;34530;52.084;5.146;2022-08-19T06:49:32;51.67;;;26.63;;
48733;SDS011;34530;52.084;5.146;2022-08-19T06:51:59;49.13;;;25.52;;
48733;SDS011;34530;52.084;5.146;2022-08-19T06:54:25;41.58;;;27.60;;
48733;SDS011;34530;52.084;5.146;2022-08-19T06:56:53;43.70;;;25.48;;
48733;SDS011;34530;52.084;5.146;2022-08-19T06:59:20;46.38;;;31.58;;
48733;SDS011;34530;52.084;5.146;2022-08-19T07:01:51;37.97;;;23.98;;
48733;SDS011;34530;52.084;5.146;2022-08-19T07:04:21;35.45;;;24.52;;
48733;SDS011;34530;52.084;5.146;2022-08-19T07:06:50;38.25;;;23.75;;
48733;SDS011;34530;52.084;5.146;2022-08-19T07:09:21;44.55;;;30.85;;
48733;SDS011;34530;52.084;5.146;2022-08-19T07:11:48;40.20;;;27.95;;
48733;SDS011;34530;52.084;5.146;2022-08-19T07:14:16;39.30;;;25.60;;
48733;SDS011;34530;52.084;5.146;2022-08-19T07:16:43;32.88;;;24.05;;
48733;SDS011;34530;52.084;5.146;2022-08-19T07:19:11;33.75;;;24.50;;
48733;SDS011;34530;52.084;5.146;2022-08-19T07:21:37;33.67;;;23.75;;
48733;SDS011;34530;52.084;5.146;2022-08-19T07:24:03;33.47;;;24.23;;
48733;SDS011;34530;52.084;5.146;2022-08-19T07:26:30;43.85;;;28.42;;
48733;SDS011;34530;52.084;5.146;2022-08-19T07:28:58;37.78;;;27.45;;
48733;SDS011;34530;52.084;5.146;2022-08-19T07:31:25;32.65;;;23.98;;
48733;SDS011;34530;52.084;5.146;2022-08-19T07:33:52;32.85;;;22.13;;
48733;SDS011;34530;52.084;5.146;2022-08-19T07:36:21;26.92;;;20.58;;
48733;SDS011;34530;52.084;5.146;2022-08-19T07:38:50;33.10;;;23.00;;
48733;SDS011;34530;52.084;5.146;2022-08-19T07:41:21;30.90;;;21.88;;
48733;SDS011;34530;52.084;5.146;2022-08-19T07:43:48;32.58;;;22.92;;
48733;SDS011;34530;52.084;5.146;2022-08-19T07:46:14;30.15;;;20.73;;
48733;SDS011;34530;52.084;5.146;2022-08-19T07:48:42;29.20;;;20.88;;
48733;SDS011;34530;52.084;5.146;2022-08-19T07:51:15;30.42;;;21.77;;
48733;SDS011;34530;52.084;5.146;2022-08-19T07:53:43;37.33;;;25.80;;
48733;SDS011;34530;52.084;5.146;2022-08-19T07:56:11;24.70;;;20.20;;
48733;SDS011;34530;52.084;5.146;2022-08-19T07:58:38;29.17;;;20.67;;
48733;SDS011;34530;52.084;5.146;2022-08-19T08:01:07;29.40;;;20.05;;
48733;SDS011;34530;52.084;5.146;2022-08-19T08:03:35;29.70;;;21.50;;
48733;SDS011;34530;52.084;5.146;2022-08-19T08:06:20;32.17;;;22.08;;
48733;SDS011;34530;52.084;5.146;2022-08-19T08:09:04;31.05;;;21.08;;
48733;SDS011;34530;52.084;5.146;2022-08-19T08:11:36;30.65;;;23.90;;
48733;SDS011;34530;52.084;5.146;2022-08-19T08:14:30;34.75;;;23.25;;
48733;SDS011;34530;52.084;5.146;2022-08-19T08:17:06;34.22;;;23.77;;
48733;SDS011;34530;52.084;5.146;2022-08-19T08:19:33;33.97;;;24.60;;
48733;SDS011;34530;52.084;5.146;2022-08-19T08:21:59;34.03;;;25.08;;
48733;SDS011;34530;52.084;5.146;2022-08-19T08:24:27;34.40;;;24.70;;
48733;SDS011;34530;52.084;5.146;2022-08-19T08:26:55;34.20;;;24.95;;
48733;SDS011;34530;52.084;5.146;2022-08-19T08:29:22;39.13;;;26.92;;
48733;SDS011;34530;52.084;5.146;2022-08-19T08:31:48;32.53;;;25.38;;
48733;SDS011;34530;52.084;5.146;2022-08-19T08:34:14;36.63;;;25.70;;
48733;SDS011;34530;52.084;5.146;2022-08-19T08:36:43;34.72;;;25.77;;
48733;SDS011;34530;52.084;5.146;2022-08-19T08:39:18;35.28;;;24.85;;
48733;SDS011;34530;52.084;5.146;2022-08-19T08:41:53;36.20;;;25.67;;
48733;SDS011;34530;52.084;5.146;2022-08-19T08:44:36;36.53;;;24.90;;
48733;SDS011;34530;52.084;5.146;2022-08-19T08:47:05;33.30;;;23.08;;
48733;SDS011;34530;52.084;5.146;2022-08-19T08:49:59;29.48;;;22.33;;
48733;SDS011;34530;52.084;5.146;2022-08-19T08:52:36;28.98;;;21.25;;
48733;SDS011;34530;52.084;5.146;2022-08-19T08:55:11;25.08;;;18.65;;
48733;SDS011;34530;52.084;5.146;2022-08-19T08:58:00;25.63;;;18.60;;
48733;SDS011;34530;52.084;5.146;2022-08-19T09:00:37;26.83;;;18.67;;
48733;SDS011;34530;52.084;5.146;2022-08-19T09:08:37;23.92;;;14.82;;
48733;SDS011;34530;52.084;5.146;2022-08-19T09:11:58;20.05;;;14.77;;
48733;SDS011;34530;52.084;5.146;2022-08-19T09:16:48;20.98;;;16.75;;
48733;SDS011;34530;52.084;5.146;2022-08-19T09:19:14;21.83;;;17.45;;
48733;SDS011;34530;52.084;5.146;2022-08-19T09:21:42;24.63;;;16.60;;
48733;SDS011;34530;52.084;5.146;2022-08-19T09:24:08;22.30;;;16.77;;
48733;SDS011;34530;52.084;5.146;2022-08-19T09:26:33;22.55;;;15.95;;
48733;SDS011;34530;52.084;5.146;2022-08-19T09:29:00;20.58;;;15.70;;
48733;SDS011;34530;52.084;5.146;2022-08-19T09:31:27;21.85;;;16.30;;
48733;SDS011;34530;52.084;5.146;2022-08-19T09:33:54;19.63;;;16.45;;
48733;SDS011;34530;52.084;5.146;2022-08-19T09:36:24;21.08;;;15.95;;
48733;SDS011;34530;52.084;5.146;2022-08-19T09:38:51;22.50;;;17.20;;
48733;SDS011;34530;52.084;5.146;2022-08-19T09:41:19;20.80;;;16.83;;
48733;SDS011;34530;52.084;5.146;2022-08-19T09:43:47;23.63;;;17.67;;
48733;SDS011;34530;52.084;5.146;2022-08-19T09:46:17;20.92;;;18.48;;
48733;SDS011;34530;52.084;5.146;2022-08-19T09:48:46;22.70;;;18.30;;
48733;SDS011;34530;52.084;5.146;2022-08-19T09:51:15;21.75;;;18.58;;
48733;SDS011;34530;52.084;5.146;2022-08-19T09:53:44;22.83;;;17.38;;
48733;SDS011;34530;52.084;5.146;2022-08-19T09:56:11;29.95;;;19.08;;
48733;SDS011;34530;52.084;5.146;2022-08-19T09:58:37;23.63;;;18.67;;
48733;SDS011;34530;52.084;5.146;2022-08-19T10:01:04;24.10;;;18.77;;
48733;SDS011;34530;52.084;5.146;2022-08-19T10:03:31;22.60;;;17.58;;
48733;SDS011;34530;52.084;5.146;2022-08-19T10:05:58;25.02;;;19.92;;
48733;SDS011;34530;52.084;5.146;2022-08-19T10:08:27;27.92;;;19.95;;
48733;SDS011;34530;52.084;5.146;2022-08-19T10:10:55;26.23;;;22.88;;
48733;SDS011;34530;52.084;5.146;2022-08-19T10:13:23;27.92;;;22.55;;
48733;SDS011;34530;52.084;5.146;2022-08-19T10:15:55;29.60;;;25.30;;
48733;SDS011;34530;52.084;5.146;2022-08-19T10:18:32;32.58;;;24.38;;
48733;SDS011;34530;52.084;5.146;2022-08-19T10:21:03;35.78;;;25.55;;
48733;SDS011;34530;52.084;5.146;2022-08-19T10:23:37;30.80;;;24.25;;
48733;SDS011;34530;52.084;5.146;2022-08-19T10:26:04;28.75;;;23.10;;
48733;SDS011;34530;52.084;5.146;2022-08-19T10:28:34;29.83;;;20.88;;
48733;SDS011;34530;52.084;5.146;2022-08-19T10:31:09;30.25;;;23.23;;
48733;SDS011;34530;52.084;5.146;2022-08-19T10:33:37;32.50;;;24.95;;
48733;SDS011;34530;52.084;5.146;2022-08-19T10:36:04;29.80;;;23.65;;
48733;SDS011;34530;52.084;5.146;2022-08-19T10:38:33;30.70;;;24.52;;
48733;SDS011;34530;52.084;5.146;2022-08-19T10:41:12;29.30;;;22.58;;
48733;SDS011;34530;52.084;5.146;2022-08-19T10:43:42;34.40;;;22.55;;
48733;SDS011;34530;52.084;5.146;2022-08-19T10:46:13;36.58;;;27.35;;
48733;SDS011;34530;52.084;5.146;2022-08-19T10:48:40;37.28;;;27.92;;
48733;SDS011;34530;52.084;5.146;2022-08-19T10:51:08;37.10;;;27.92;;
48733;SDS011;34530;52.084;5.146;2022-08-19T10:53:53;36.33;;;28.15;;
48733;SDS011;34530;52.084;5.146;2022-08-19T10:56:19;37.55;;;27.35;;
48733;SDS011;34530;52.084;5.146;2022-08-19T10:59:03;40.25;;;30.15;;
48733;SDS011;34530;52.084;5.146;2022-08-19T11:01:30;36.33;;;26.50;;
48733;SDS011;34530;52.084;5.146;2022-08-19T11:03:58;31.65;;;24.25;;
48733;SDS011;34530;52.084;5.146;2022-08-19T11:06:25;33.33;;;23.13;;
48733;SDS011;34530;52.084;5.146;2022-08-19T11:08:52;30.05;;;23.73;;
48733;SDS011;34530;52.084;5.146;2022-08-19T11:11:19;30.38;;;23.40;;
48733;SDS011;34530;52.084;5.146;2022-08-19T11:13:46;30.02;;;23.67;;
48733;SDS011;34530;52.084;5.146;2022-08-19T11:16:14;30.95;;;20.90;;
48733;SDS011;34530;52.084;5.146;2022-08-19T11:18:42;31.27;;;23.80;;
48733;SDS011;34530;52.084;5.146;2022-08-19T11:23:44;34.38;;;25.80;;
48733;SDS011;34530;52.084;5.146;2022-08-19T11:26:11;37.55;;;27.30;;
48733;SDS011;34530;52.084;5.146;2022-08-19T11:28:37;31.15;;;24.50;;
48733;SDS011;34530;52.084;5.146;2022-08-19T11:31:03;34.63;;;26.17;;
48733;SDS011;34530;52.084;5.146;2022-08-19T11:33:32;32.88;;;25.67;;
48733;SDS011;34530;52.084;5.146;2022-08-19T11:35:58;35.20;;;24.85;;
48733;SDS011;34530;52.084;5.146;2022-08-19T11:38:26;30.55;;;23.17;;
48733;SDS011;34530;52.084;5.146;2022-08-19T11:40:55;31.17;;;23.42;;
48733;SDS011;34530;52.084;5.146;2022-08-19T11:43:27;23.33;;;20.23;;
48733;SDS011;34530;52.084;5.146;2022-08-19T11:45:53;28.77;;;20.25;;
48733;SDS011;34530;52.084;5.146;2022-08-19T11:48:21;28.40;;;22.00;;
48733;SDS011;34530;52.084;5.146;2022-08-19T11:50:51;24.55;;;20.95;;
48733;SDS011;34530;52.084;5.146;2022-08-19T11:53:18;26.63;;;20.58;;
48733;SDS011;34530;52.084;5.146;2022-08-19T11:55:45;29.02;;;19.98;;
48733;SDS011;34530;52.084;5.146;2022-08-19T11:58:12;27.05;;;20.05;;
48733;SDS011;34530;52.084;5.146;2022-08-19T12:00:40;23.80;;;19.42;;
48733;SDS011;34530;52.084;5.146;2022-08-19T12:03:06;23.80;;;19.05;;
48733;SDS011;34530;52.084;5.146;2022-08-19T12:05:36;26.95;;;19.33;;
48733;SDS011;34530;52.084;5.146;2022-08-19T12:08:02;21.95;;;17.02;;
48733;SDS011;34530;52.084;5.146;2022-08-19T12:10:28;22.88;;;16.60;;
48733;SDS011;34530;52.084;5.146;2022-08-19T12:12:54;17.85;;;14.00;;
48733;SDS011;34530;52.084;5.146;2022-08-19T12:15:19;18.83;;;12.43;;
48733;SDS011;34530;52.084;5.146;2022-08-19T12:17:45;16.65;;;10.93;;
48733;SDS011;34530;52.084;5.146;2022-08-19T12:20:11;12.82;;;10.07;;
48733;SDS011;34530;52.084;5.146;2022-08-19T12:22:41;16.60;;;10.00;;
48733;SDS011;34530;52.084;5.146;2022-08-19T12:25:07;15.48;;;9.25;;
48733;SDS011;34530;52.084;5.146;2022-08-19T12:27:34;14.77;;;8.73;;
48733;SDS011;34530;52.084;5.146;2022-08-19T12:30:00;14.70;;;9.55;;
48733;SDS011;34530;52.084;5.146;2022-08-19T12:32:27;13.95;;;8.50;;
48733;SDS011;34530;52.084;5.146;2022-08-19T12:34:53;12.90;;;8.63;;
48733;SDS011;34530;52.084;5.146;2022-08-19T12:37:19;13.85;;;9.15;;
48733;SDS011;34530;52.084;5.146;2022-08-19T12:39:45;14.05;;;7.93;;
48733;SDS011;34530;52.084;5.146;2022-08-19T12:42:11;10.52;;;7.47;;
48733;SDS011;34530;52.084;5.146;2022-08-19T12:44:39;10.77;;;7.05;;
48733;SDS011;34530;52.084;5.146;2022-08-19T12:47:07;10.55;;;7.15;;
48733;SDS011;34530;52.084;5.146;2022-08-19T12:49:33;13.80;;;7.45;;
48733;SDS011;34530;52.084;5.146;2022-08-19T12:52:01;14.45;;;8.27;;
48733;SDS011;34530;52.084;5.146;2022-08-19T12:54:29;17.50;;;8.23;;
48733;SDS011;34530;52.084;5.146;2022-08-19T12:56:55;12.27;;;7.22;;
48733;SDS011;34530;52.084;5.146;2022-08-19T12:59:24;23.95;;;11.18;;
48733;SDS011;34530;52.084;5.146;2022-08-19T13:01:50;30.42;;;10.65;;
48733;SDS011;34530;52.084;5.146;2022-08-19T13:04:16;18.90;;;8.48;;
48733;SDS011;34530;52.084;5.146;2022-08-19T13:06:42;14.02;;;7.88;;
48733;SDS011;34530;52.084;5.146;2022-08-19T13:09:08;15.23;;;7.45;;
48733;SDS011;34530;52.084;5.146;2022-08-19T13:11:34;10.60;;;5.70;;
48733;SDS011;34530;52.084;5.146;2022-08-19T13:14:01;7.75;;;5.13;;
48733;SDS011;34530;52.084;5.146;2022-08-19T13:16:28;12.50;;;5.50;;
48733;SDS011;34530;52.084;5.146;2022-08-19T13:18:55;11.25;;;5.50;;
48733;SDS011;34530;52.084;5.146;2022-08-19T13:21:22;10.02;;;5.28;;
48733;SDS011;34530;52.084;5.146;2022-08-19T13:23:50;7.70;;;5.13;;
48733;SDS011;34530;52.084;5.146;2022-08-19T13:26:17;10.55;;;4.85;;
48733;SDS011;34530;52.084;5.146;2022-08-19T13:28:43;8.93;;;5.18;;
48733;SDS011;34530;52.084;5.146;2022-08-19T13:31:28;11.65;;;5.55;;
48733;SDS011;34530;52.084;5.146;2022-08-19T13:34:16;8.05;;;4.90;;
48733;SDS011;34530;52.084;5.146;2022-08-19T13:36:44;8.27;;;5.60;;
48733;SDS011;34530;52.084;5.146;2022-08-19T13:39:10;8.05;;;5.30;;
48733;SDS011;34530;52.084;5.146;2022-08-19T13:41:37;9.43;;;5.10;;
48733;SDS011;34530;52.084;5.146;2022-08-19T13:44:08;7.03;;;4.72;;
48733;SDS011;34530;52.084;5.146;2022-08-19T13:46:33;7.90;;;4.88;;
48733;SDS011;34530;52.084;5.146;2022-08-19T13:48:59;7.88;;;5.18;;
48733;SDS011;34530;52.084;5.146;2022-08-19T13:51:24;7.38;;;4.90;;
48733;SDS011;34530;52.084;5.146;2022-08-19T13:53:50;6.45;;;4.88;;
48733;SDS011;34530;52.084;5.146;2022-08-19T13:56:17;9.52;;;4.65;;
48733;SDS011;34530;52.084;5.146;2022-08-19T13:58:46;5.30;;;4.60;;
48733;SDS011;34530;52.084;5.146;2022-08-19T14:01:12;6.55;;;4.45;;
48733;SDS011;34530;52.084;5.146;2022-08-19T14:03:43;8.27;;;4.60;;
48733;SDS011;34530;52.084;5.146;2022-08-19T14:06:09;6.18;;;4.05;;
48733;SDS011;34530;52.084;5.146;2022-08-19T14:08:35;5.25;;;4.68;;
48733;SDS011;34530;52.084;5.146;2022-08-19T14:11:04;7.35;;;4.07;;
48733;SDS011;34530;52.084;5.146;2022-08-19T14:13:30;5.05;;;3.95;;
48733;SDS011;34530;52.084;5.146;2022-08-19T14:15:58;10.27;;;4.72;;
48733;SDS011;34530;52.084;5.146;2022-08-19T14:18:24;4.40;;;4.00;;
48733;SDS011;34530;52.084;5.146;2022-08-19T14:20:50;8.00;;;4.20;;
48733;SDS011;34530;52.084;5.146;2022-08-19T14:23:16;4.95;;;3.80;;
48733;SDS011;34530;52.084;5.146;2022-08-19T14:25:42;6.00;;;3.40;;
48733;SDS011;34530;52.084;5.146;2022-08-19T14:28:07;6.57;;;3.60;;
48733;SDS011;34530;52.084;5.146;2022-08-19T14:30:34;4.35;;;3.45;;
48733;SDS011;34530;52.084;5.146;2022-08-19T14:33:02;4.15;;;3.50;;
48733;SDS011;34530;52.084;5.146;2022-08-19T14:35:30;4.82;;;3.10;;
48733;SDS011;34530;52.084;5.146;2022-08-19T14:37:59;6.10;;;3.67;;
48733;SDS011;34530;52.084;5.146;2022-08-19T14:40:26;8.50;;;3.42;;
48733;SDS011;34530;52.084;5.146;2022-08-19T14:42:53;5.80;;;2.72;;
48733;SDS011;34530;52.084;5.146;2022-08-19T14:45:24;3.95;;;3.08;;
48733;SDS011;34530;52.084;5.146;2022-08-19T14:47:50;6.38;;;3.13;;
48733;SDS011;34530;52.084;5.146;2022-08-19T14:50:16;4.18;;;3.22;;
48733;SDS011;34530;52.084;5.146;2022-08-19T14:52:42;3.53;;;2.88;;
48733;SDS011;34530;52.084;5.146;2022-08-19T14:55:08;6.05;;;2.60;;
48733;SDS011;34530;52.084;5.146;2022-08-19T14:57:34;6.85;;;3.35;;